createdAt,value
2022-11-15T00:02:01.857Z,12.00
2022-11-15T00:04:48.001Z,12.00
2022-11-15T00:07:54.578Z,12.00
2022-11-15T00:10:40.859Z,12.00
2022-11-15T00:13:27.806Z,12.00
2022-11-15T00:16:14.153Z,11.90
2022-11-15T00:19:00.511Z,11.90
2022-11-15T00:21:47.148Z,11.90
2022-11-15T00:24:33.594Z,11.90
2022-11-15T00:27:19.949Z,11.90
2022-11-15T00:30:06.589Z,11.80
2022-11-15T00:32:54.466Z,11.90
2022-11-15T00:35:40.681Z,11.80
2022-11-15T00:38:31.417Z,11.80
2022-11-15T00:41:17.755Z,11.80
2022-11-15T00:44:04.279Z,11.80
2022-11-15T00:46:50.878Z,11.70
2022-11-15T00:49:37.455Z,11.70
2022-11-15T00:52:24.217Z,11.70
2022-11-15T00:55:20.131Z,11.70
2022-11-15T00:58:06.501Z,11.70
2022-11-15T01:00:53.044Z,11.70
2022-11-15T01:03:39.997Z,11.70
2022-11-15T01:06:26.472Z,11.60
2022-11-15T01:09:12.877Z,11.60
2022-11-15T01:11:59.269Z,11.60
2022-11-15T01:14:45.610Z,11.60
2022-11-15T01:17:32.613Z,11.60
2022-11-15T01:20:20.241Z,11.60
2022-11-15T01:23:07.003Z,11.60
2022-11-15T01:25:53.652Z,11.60
2022-11-15T01:28:41.190Z,11.50
2022-11-15T01:31:27.459Z,11.50
2022-11-15T01:34:13.728Z,11.50
2022-11-15T01:37:00.156Z,11.50
2022-11-15T01:39:46.752Z,11.50
2022-11-15T01:42:33.291Z,11.40
2022-11-15T01:45:19.462Z,11.40
2022-11-15T01:48:06.042Z,11.40
2022-11-15T01:50:52.638Z,11.40
2022-11-15T01:53:41.654Z,11.40
2022-11-15T01:56:30.389Z,11.30
2022-11-15T01:59:17.052Z,11.30
2022-11-15T02:02:03.674Z,11.30
2022-11-15T02:04:50.102Z,11.30
2022-11-15T02:07:36.798Z,11.30
2022-11-15T02:10:24.449Z,11.30
2022-11-15T02:13:11.426Z,11.30
2022-11-15T02:16:10.741Z,11.30
2022-11-15T02:19:01.220Z,11.20
2022-11-15T02:21:59.296Z,11.20
2022-11-15T02:25:14.747Z,11.20
2022-11-15T02:28:12.110Z,11.10
2022-11-15T02:31:10.832Z,11.20
2022-11-15T02:34:09.281Z,11.20
2022-11-15T02:36:58.351Z,11.10
2022-11-15T02:39:47.648Z,11.10
2022-11-15T02:42:55.560Z,11.10
2022-11-15T02:45:45.471Z,11.10
2022-11-15T02:48:33.035Z,11.00
2022-11-15T02:51:19.881Z,11.00
2022-11-15T02:54:06.455Z,11.00
2022-11-15T02:56:54.769Z,11.00
2022-11-15T02:59:53.203Z,11.00
2022-11-15T03:02:45.450Z,10.90
2022-11-15T03:05:55.066Z,10.90
2022-11-15T03:08:41.919Z,10.90
2022-11-15T03:11:30.700Z,10.90
2022-11-15T03:14:25.665Z,10.80
2022-11-15T03:17:32.289Z,10.80
2022-11-15T03:20:19.780Z,10.80
2022-11-15T03:23:08.304Z,10.80
2022-11-15T03:25:56.244Z,10.70
2022-11-15T03:28:47.068Z,10.70
2022-11-15T03:31:50.360Z,10.70
2022-11-15T03:34:47.314Z,10.60
2022-11-15T03:37:41.450Z,10.60
2022-11-15T03:40:34.979Z,10.60
2022-11-15T03:43:26.247Z,10.60
2022-11-15T03:46:15.236Z,10.60
2022-11-15T03:49:10.284Z,10.60
2022-11-15T03:52:00.553Z,10.50
2022-11-15T03:54:51.860Z,10.50
2022-11-15T03:57:38.181Z,10.50
2022-11-15T04:00:24.426Z,10.50
2022-11-15T04:03:10.794Z,10.40
2022-11-15T04:05:57.155Z,10.40
2022-11-15T04:08:43.464Z,10.40
2022-11-15T04:11:29.984Z,10.40
2022-11-15T04:14:16.572Z,10.40
2022-11-15T04:17:03.329Z,10.30
2022-11-15T04:20:08.472Z,10.30
2022-11-15T04:23:14.240Z,10.30
2022-11-15T04:26:02.039Z,10.30
2022-11-15T04:29:06.492Z,10.20
2022-11-15T04:31:53.188Z,10.20
2022-11-15T04:34:40.031Z,10.20
2022-11-15T04:37:26.592Z,10.10
2022-11-15T04:40:13.059Z,10.10
2022-11-15T04:43:03.806Z,10.10
2022-11-15T04:45:50.364Z,10.10
2022-11-15T04:48:36.600Z,10.10
2022-11-15T04:51:23.201Z,10.10
2022-11-15T04:54:09.415Z,10.10
2022-11-15T04:56:55.655Z,10.10
2022-11-15T04:59:42.015Z,10.10
2022-11-15T05:02:48.311Z,10.00
2022-11-15T05:05:34.740Z,10.00
2022-11-15T05:08:24.304Z,10.00
2022-11-15T05:11:10.622Z,10.10
2022-11-15T05:13:57.457Z,10.00
2022-11-15T05:16:43.928Z,10.00
2022-11-15T05:19:30.536Z,10.00
2022-11-15T05:22:17.307Z,10.00
2022-11-15T05:25:04.118Z,9.90
2022-11-15T05:27:50.343Z,9.90
2022-11-15T05:30:36.750Z,9.90
2022-11-15T05:33:23.247Z,9.90
2022-11-15T05:36:14.030Z,9.90
2022-11-15T05:39:00.470Z,9.90
2022-11-15T05:41:52.422Z,9.90
2022-11-15T05:44:40.868Z,9.90
2022-11-15T05:47:29.291Z,9.90
2022-11-15T05:50:16.679Z,9.90
2022-11-15T05:53:05.282Z,9.90
2022-11-15T05:55:52.596Z,9.90
2022-11-15T05:58:39.457Z,9.90
2022-11-15T06:01:26.677Z,9.90
2022-11-15T06:04:13.199Z,9.90
2022-11-15T06:07:00.076Z,9.90
2022-11-15T06:09:46.439Z,9.90
2022-11-15T06:12:32.768Z,9.90
2022-11-15T06:15:19.032Z,9.90
2022-11-15T06:18:05.397Z,10.00
2022-11-15T06:20:52.040Z,10.00
2022-11-15T06:23:38.752Z,10.00
2022-11-15T06:26:25.453Z,10.10
2022-11-15T06:29:11.686Z,10.20
2022-11-15T06:31:58.012Z,10.20
2022-11-15T06:34:44.423Z,10.20
2022-11-15T06:37:30.771Z,10.20
2022-11-15T06:40:17.163Z,10.30
2022-11-15T06:43:05.328Z,10.30
2022-11-15T06:45:51.745Z,10.30
2022-11-15T06:48:38.127Z,10.40
2022-11-15T06:51:24.981Z,10.40
2022-11-15T06:54:11.514Z,10.50
2022-11-15T06:56:58.031Z,10.60
2022-11-15T06:59:44.445Z,10.60
2022-11-15T07:02:32.121Z,10.60
2022-11-15T07:05:18.583Z,10.70
2022-11-15T07:08:05.568Z,10.80
2022-11-15T07:10:52.202Z,10.80
2022-11-15T07:13:38.692Z,10.90
2022-11-15T07:16:25.388Z,11.00
2022-11-15T07:19:11.749Z,11.10
2022-11-15T07:21:58.175Z,11.20
2022-11-15T07:24:44.493Z,11.30
2022-11-15T07:27:30.982Z,11.30
2022-11-15T07:30:17.446Z,11.40
2022-11-15T07:33:03.724Z,11.40
2022-11-15T07:35:50.243Z,11.50
2022-11-15T07:38:41.230Z,11.40
2022-11-15T07:41:30.560Z,11.50
2022-11-15T07:44:18.245Z,11.50
2022-11-15T07:47:04.929Z,11.50
2022-11-15T07:49:52.337Z,11.60
2022-11-15T07:52:38.947Z,11.60
2022-11-15T07:55:26.087Z,11.60
2022-11-15T07:58:12.835Z,11.70
2022-11-15T08:00:59.172Z,11.70
2022-11-15T08:03:45.732Z,11.70
2022-11-15T08:06:32.147Z,11.80
2022-11-15T08:09:18.693Z,11.80
2022-11-15T08:12:05.407Z,11.80
2022-11-15T08:14:51.818Z,11.90
2022-11-15T08:17:38.399Z,11.90
2022-11-15T08:20:25.692Z,11.90
2022-11-15T08:23:12.773Z,11.90
2022-11-15T08:26:06.074Z,11.90
2022-11-15T08:28:52.652Z,12.00
2022-11-15T08:31:39.603Z,12.10
2022-11-15T08:34:26.044Z,12.10
2022-11-15T08:37:12.179Z,12.20
2022-11-15T08:39:58.462Z,12.20
2022-11-15T08:42:47.058Z,12.20
2022-11-15T08:45:35.269Z,12.20
2022-11-15T08:48:21.633Z,12.20
2022-11-15T08:51:08.207Z,12.20
2022-11-15T08:53:54.407Z,12.30
2022-11-15T08:56:41.958Z,12.30
2022-11-15T08:59:28.485Z,12.40
2022-11-15T09:02:15.959Z,12.50
2022-11-15T09:05:02.432Z,12.70
2022-11-15T09:07:48.857Z,12.80
2022-11-15T09:10:35.488Z,13.00
2022-11-15T09:13:21.695Z,13.10
2022-11-15T09:16:08.123Z,13.20
2022-11-15T09:18:55.725Z,13.30
2022-11-15T09:21:42.127Z,13.50
2022-11-15T09:24:28.807Z,13.80
2022-11-15T09:27:15.045Z,14.10
2022-11-15T09:30:01.493Z,14.30
2022-11-15T09:32:49.040Z,14.40
2022-11-15T09:35:36.064Z,14.50
2022-11-15T09:38:22.727Z,14.50
2022-11-15T09:41:08.993Z,14.60
2022-11-15T09:44:14.263Z,14.70
2022-11-15T09:47:10.060Z,14.80
2022-11-15T09:50:18.548Z,14.80
2022-11-15T09:52:47.007Z,14.80
2022-11-15T09:55:23.806Z,14.80
2022-11-15T09:58:05.452Z,14.80
2022-11-15T10:00:47.968Z,14.80
2022-11-15T10:03:19.511Z,14.60
2022-11-15T10:05:48.983Z,14.50
2022-11-15T10:08:36.080Z,14.50
2022-11-15T10:13:56.662Z,14.40
2022-11-15T10:16:47.696Z,14.40
2022-11-15T10:19:15.570Z,14.40
2022-11-15T10:22:02.346Z,14.40
2022-11-15T10:24:32.328Z,14.40
2022-11-15T10:27:00.292Z,14.50
2022-11-15T10:29:28.126Z,14.50
2022-11-15T10:31:57.190Z,14.50
2022-11-15T10:34:26.245Z,14.50
2022-11-15T10:36:58.227Z,14.50
2022-11-15T10:42:19.633Z,14.50
2022-11-15T10:44:47.713Z,14.60
2022-11-15T10:47:25.975Z,14.60
2022-11-15T10:49:55.006Z,14.60
2022-11-15T10:52:23.708Z,14.60
2022-11-15T10:55:08.090Z,14.50
2022-11-15T10:57:40.792Z,14.50
2022-11-15T11:00:28.149Z,14.40
2022-11-15T11:03:08.491Z,14.40
2022-11-15T11:05:42.346Z,14.40
2022-11-15T11:08:17.240Z,14.30
2022-11-15T11:11:01.358Z,14.30
2022-11-15T11:13:32.087Z,14.30
2022-11-15T11:16:15.225Z,14.30
2022-11-15T11:19:01.650Z,14.40
2022-11-15T11:21:50.981Z,14.40
2022-11-15T11:24:35.664Z,14.40
2022-11-15T11:27:14.802Z,14.50
2022-11-15T11:29:50.717Z,14.40
2022-11-15T11:32:36.254Z,14.50
2022-11-15T11:35:08.170Z,14.50
2022-11-15T11:37:51.518Z,14.60
2022-11-15T11:40:22.486Z,14.70
2022-11-15T11:43:20.964Z,14.80
2022-11-15T11:45:57.830Z,14.80
2022-11-15T11:48:45.650Z,14.90
2022-11-15T11:51:22.021Z,14.90
2022-11-15T11:53:58.756Z,14.90
2022-11-15T11:56:29.179Z,14.90
2022-11-15T11:59:02.136Z,15.00
2022-11-15T12:01:43.231Z,15.00
2022-11-15T12:04:17.357Z,15.00
2022-11-15T12:07:03.899Z,15.20
2022-11-15T12:09:40.867Z,15.20
2022-11-15T12:12:14.832Z,15.20
2022-11-15T12:15:08.722Z,15.20
2022-11-15T12:17:37.280Z,15.20
2022-11-15T12:20:10.610Z,15.20
2022-11-15T12:22:42.309Z,15.20
2022-11-15T12:25:16.642Z,15.30
2022-11-15T12:27:50.674Z,15.30
2022-11-15T12:30:20.108Z,15.40
2022-11-15T12:32:56.015Z,15.50
2022-11-15T12:35:32.787Z,15.50
2022-11-15T12:38:00.921Z,15.50
2022-11-15T12:40:30.483Z,15.50
2022-11-15T12:43:18.489Z,15.40
2022-11-15T12:45:47.224Z,15.30
2022-11-15T12:48:18.191Z,15.20
2022-11-15T12:50:53.033Z,15.20
2022-11-15T12:53:24.036Z,15.20
2022-11-15T12:56:12.268Z,15.10
2022-11-15T12:58:51.010Z,15.00
2022-11-15T13:01:34.284Z,15.00
2022-11-15T13:04:20.715Z,15.00
2022-11-15T13:06:52.780Z,15.00
2022-11-15T13:09:33.158Z,14.80
2022-11-15T13:12:05.205Z,14.70
2022-11-15T13:14:42.754Z,14.50
2022-11-15T13:17:22.999Z,14.40
2022-11-15T13:20:09.430Z,15.00
2022-11-15T13:23:00.978Z,15.60
2022-11-15T13:25:35.381Z,16.00
2022-11-15T13:28:07.911Z,16.40
2022-11-15T13:30:36.464Z,16.20
2022-11-15T13:33:12.476Z,16.00
2022-11-15T13:35:41.398Z,15.70
2022-11-15T13:38:19.975Z,15.50
2022-11-15T13:40:47.894Z,15.10
2022-11-15T13:43:29.723Z,14.70
2022-11-15T13:46:06.959Z,14.40
2022-11-15T13:48:35.259Z,14.10
2022-11-15T13:51:23.507Z,13.90
2022-11-15T13:53:54.228Z,13.70
2022-11-15T13:56:22.562Z,13.60
2022-11-15T13:58:50.504Z,13.60
2022-11-15T14:01:21.995Z,13.50
2022-11-15T14:03:58.601Z,13.50
2022-11-15T14:06:30.843Z,13.50
2022-11-15T14:09:18.530Z,13.40
2022-11-15T14:11:56.820Z,13.40
2022-11-15T14:14:25.864Z,13.40
2022-11-15T14:16:55.328Z,13.40
2022-11-15T14:19:23.244Z,13.30
2022-11-15T14:22:11.156Z,13.20
2022-11-15T14:24:39.775Z,13.10
2022-11-15T14:27:37.144Z,13.00
2022-11-15T14:30:05.105Z,12.90
2022-11-15T14:32:49.820Z,12.80
2022-11-15T14:35:19.357Z,12.70
2022-11-15T14:37:47.263Z,12.50
2022-11-15T14:40:18.520Z,12.50
2022-11-15T14:42:47.263Z,12.40
2022-11-15T14:45:16.634Z,12.40
2022-11-15T14:47:45.051Z,12.30
2022-11-15T14:50:19.831Z,12.20
2022-11-15T14:52:48.294Z,12.20
2022-11-15T14:55:26.559Z,12.10
2022-11-15T14:57:54.461Z,12.10
2022-11-15T15:00:23.088Z,12.10
2022-11-15T15:02:53.083Z,12.00
2022-11-15T15:05:22.447Z,12.00
2022-11-15T15:07:53.178Z,12.00
2022-11-15T15:13:27.987Z,11.90
2022-11-15T15:15:56.005Z,11.90
2022-11-15T15:18:23.927Z,11.80
2022-11-15T15:20:56.958Z,11.70
2022-11-15T15:23:27.008Z,11.70
2022-11-15T15:25:54.868Z,11.70
2022-11-15T15:28:22.700Z,11.70
2022-11-15T15:30:54.117Z,11.70
2022-11-15T15:33:22.033Z,11.70
2022-11-15T15:35:50.464Z,11.70
2022-11-15T15:38:18.369Z,11.60
2022-11-15T15:40:46.427Z,11.70
2022-11-15T15:43:14.526Z,11.60
2022-11-15T15:45:43.320Z,11.60
2022-11-15T15:48:15.233Z,11.50
2022-11-15T15:50:44.664Z,11.50
2022-11-15T15:53:13.230Z,11.50
2022-11-15T15:55:41.737Z,11.50
2022-11-15T15:58:10.012Z,11.50
2022-11-15T16:00:38.194Z,11.50
2022-11-15T16:03:06.151Z,11.50
2022-11-15T16:05:34.295Z,11.50
2022-11-15T16:08:02.267Z,11.50
2022-11-15T16:10:32.206Z,11.50
2022-11-15T16:13:00.384Z,11.50
2022-11-15T16:15:31.031Z,11.40
2022-11-15T16:17:59.710Z,11.40
2022-11-15T16:20:35.462Z,11.40
2022-11-15T16:23:08.992Z,11.40
2022-11-15T16:25:50.996Z,11.40
2022-11-15T16:28:20.489Z,11.40
2022-11-15T16:30:52.445Z,11.40
2022-11-15T16:33:24.618Z,11.40
2022-11-15T16:35:52.451Z,11.30
2022-11-15T16:38:20.396Z,11.30
2022-11-15T16:40:48.424Z,11.40
2022-11-15T16:43:16.783Z,11.30
2022-11-15T16:45:45.166Z,11.30
2022-11-15T16:48:23.906Z,11.30
2022-11-15T16:50:52.110Z,11.30
2022-11-15T16:53:20.149Z,11.20
2022-11-15T16:55:47.961Z,11.20
2022-11-15T16:58:15.842Z,11.20
2022-11-15T17:00:43.819Z,11.20
2022-11-15T17:03:12.314Z,11.10
2022-11-15T17:05:40.256Z,11.10
2022-11-15T17:08:09.043Z,11.10
2022-11-15T17:10:39.488Z,11.10
2022-11-15T17:13:07.519Z,11.00
2022-11-15T17:15:35.342Z,11.00
2022-11-15T17:18:03.573Z,11.00
2022-11-15T17:20:31.455Z,11.00
2022-11-15T17:22:59.491Z,10.90
2022-11-15T17:25:27.381Z,10.90
2022-11-15T17:27:56.553Z,10.90
2022-11-15T17:30:24.605Z,10.80
2022-11-15T17:32:52.851Z,10.80
2022-11-15T17:35:20.871Z,10.80
2022-11-15T17:37:48.923Z,10.70
2022-11-15T17:40:16.898Z,10.70
2022-11-15T17:42:45.178Z,10.70
2022-11-15T17:45:13.613Z,10.60
2022-11-15T17:47:41.667Z,10.60
2022-11-15T17:50:09.787Z,10.50
2022-11-15T17:52:37.985Z,10.50
2022-11-15T17:55:06.020Z,10.50
2022-11-15T17:57:33.972Z,10.50
2022-11-15T18:00:01.865Z,10.40
2022-11-15T18:02:31.994Z,10.40
2022-11-15T18:04:59.954Z,10.30
2022-11-15T18:07:28.018Z,10.30
2022-11-15T18:09:55.902Z,10.20
2022-11-15T18:12:23.834Z,10.20
2022-11-15T18:14:51.727Z,10.10
2022-11-15T18:17:19.719Z,10.10
2022-11-15T18:19:48.926Z,10.10
2022-11-15T18:22:16.811Z,10.00
2022-11-15T18:24:47.335Z,10.00
2022-11-15T18:27:15.288Z,9.90
2022-11-15T18:29:45.008Z,9.90
2022-11-15T18:32:15.410Z,9.80
2022-11-15T18:34:43.443Z,9.80
2022-11-15T18:37:11.526Z,9.70
2022-11-15T18:39:39.460Z,9.70
2022-11-15T18:42:07.355Z,9.70
2022-11-15T18:44:35.461Z,9.70
2022-11-15T18:47:03.315Z,9.60
2022-11-15T18:49:31.351Z,9.60
2022-11-15T18:51:59.211Z,9.60
2022-11-15T18:54:31.239Z,9.50
2022-11-15T18:57:00.198Z,9.50
2022-11-15T18:59:28.188Z,9.50
2022-11-15T19:01:57.214Z,9.50
2022-11-15T19:04:25.196Z,9.50
2022-11-15T19:06:53.802Z,9.50
2022-11-15T19:09:21.920Z,9.40
2022-11-15T19:11:51.909Z,9.40
2022-11-15T19:14:24.481Z,9.40
2022-11-15T19:16:52.981Z,9.40
2022-11-15T19:19:25.157Z,9.40
2022-11-15T19:21:53.379Z,9.40
2022-11-15T19:24:21.255Z,9.30
2022-11-15T19:26:49.287Z,9.30
2022-11-15T19:29:18.616Z,9.30
2022-11-15T19:31:48.130Z,9.20
2022-11-15T19:34:16.094Z,9.20
2022-11-15T19:36:44.736Z,9.10
2022-11-15T19:39:13.544Z,9.10
2022-11-15T19:41:43.188Z,9.10
2022-11-15T19:44:11.849Z,9.10
2022-11-15T19:46:40.179Z,9.10
2022-11-15T19:49:11.372Z,9.00
2022-11-15T19:51:41.827Z,9.00
2022-11-15T19:54:10.863Z,9.00
2022-11-15T19:56:40.320Z,9.00
2022-11-15T19:59:08.608Z,8.90
2022-11-15T20:01:39.044Z,8.90
2022-11-15T20:04:08.139Z,8.90
2022-11-15T20:06:37.437Z,8.80
2022-11-15T20:09:05.317Z,8.80
2022-11-15T20:11:34.503Z,8.80
2022-11-15T20:14:02.522Z,8.80
2022-11-15T20:16:30.555Z,8.80
2022-11-15T20:18:58.599Z,8.80
2022-11-15T20:21:26.567Z,8.80
2022-11-15T20:23:55.496Z,8.70
2022-11-15T20:26:23.536Z,8.70
2022-11-15T20:28:51.622Z,8.60
2022-11-15T20:31:19.677Z,8.60
2022-11-15T20:33:47.589Z,8.60
2022-11-15T20:36:16.259Z,8.50
2022-11-15T20:38:44.764Z,8.50
2022-11-15T20:41:13.307Z,8.50
2022-11-15T20:43:44.819Z,8.50
2022-11-15T20:46:13.181Z,8.40
2022-11-15T20:48:41.148Z,8.40
2022-11-15T20:51:13.295Z,8.40
2022-11-15T20:53:41.519Z,8.30
2022-11-15T20:56:13.998Z,8.30
2022-11-15T20:58:42.447Z,8.30
2022-11-15T21:01:11.851Z,8.20
2022-11-15T21:03:41.731Z,8.20
2022-11-15T21:06:10.117Z,8.20
2022-11-15T21:08:56.500Z,8.20
2022-11-15T21:11:45.326Z,8.20
2022-11-15T21:14:13.414Z,8.20
2022-11-15T21:16:41.439Z,8.20
2022-11-15T21:19:09.356Z,8.10
2022-11-15T21:21:37.598Z,8.10
2022-11-15T21:24:06.697Z,8.10
2022-11-15T21:26:35.061Z,8.10
2022-11-15T21:29:03.928Z,8.10
2022-11-15T21:31:32.357Z,8.10
2022-11-15T21:34:03.971Z,8.00
2022-11-15T21:36:31.898Z,8.00
2022-11-15T21:38:59.960Z,7.90
2022-11-15T21:41:28.211Z,7.90
2022-11-15T21:44:03.094Z,7.90
2022-11-15T21:46:31.591Z,7.90
2022-11-15T21:48:59.491Z,7.90
2022-11-15T21:51:27.364Z,7.80
2022-11-15T21:53:56.378Z,7.80
2022-11-15T21:56:25.941Z,7.80
2022-11-15T21:58:54.379Z,7.80
2022-11-15T22:01:41.957Z,7.70
2022-11-15T22:04:10.377Z,7.80
2022-11-15T22:06:38.335Z,7.70
2022-11-15T22:09:06.857Z,7.70
2022-11-15T22:11:34.886Z,7.70
2022-11-15T22:14:03.998Z,7.70
2022-11-15T22:16:32.117Z,7.70
2022-11-15T22:19:00.027Z,7.60
2022-11-15T22:21:27.973Z,7.60
2022-11-15T22:23:55.939Z,7.60
2022-11-15T22:26:24.306Z,7.60
2022-11-15T22:28:52.401Z,7.50
2022-11-15T22:31:20.571Z,7.50
2022-11-15T22:33:48.544Z,7.50
2022-11-15T22:36:16.413Z,7.50
2022-11-15T22:38:45.051Z,7.50
2022-11-15T22:41:13.093Z,7.50
2022-11-15T22:43:41.052Z,7.40
2022-11-15T22:46:09.650Z,7.40
2022-11-15T22:48:39.152Z,7.40
2022-11-15T22:51:07.947Z,7.40
2022-11-15T22:53:36.008Z,7.30
2022-11-15T22:56:04.878Z,7.30
2022-11-15T22:58:33.809Z,7.30
2022-11-15T23:01:03.005Z,7.30
2022-11-15T23:03:31.772Z,7.20
2022-11-15T23:06:04.856Z,7.20
2022-11-15T23:08:33.291Z,7.20
2022-11-15T23:11:20.611Z,7.20
2022-11-15T23:13:50.284Z,7.20
2022-11-15T23:16:24.247Z,7.20
2022-11-15T23:18:56.971Z,7.20
2022-11-15T23:21:45.093Z,7.20
2022-11-15T23:24:13.946Z,7.20
2022-11-15T23:26:42.450Z,7.20
2022-11-15T23:29:11.946Z,7.10
2022-11-15T23:32:02.089Z,7.10
2022-11-15T23:34:31.390Z,7.10
2022-11-15T23:36:59.740Z,7.10
2022-11-15T23:39:27.635Z,7.10
2022-11-15T23:41:55.979Z,7.10
2022-11-15T23:44:24.314Z,7.10
2022-11-15T23:46:52.602Z,7.10
2022-11-15T23:49:20.765Z,7.00
2022-11-15T23:51:48.761Z,7.10
2022-11-15T23:54:16.686Z,7.00
2022-11-15T23:56:44.751Z,7.00
2022-11-15T23:59:12.641Z,7.00
